createdAt,value
2023-05-05T00:00:32.777Z,19.00
2023-05-05T00:03:36.549Z,21.00
2023-05-05T00:06:39.965Z,19.50
2023-05-05T00:09:44.591Z,20.00
2023-05-05T00:12:49.727Z,22.80
2023-05-05T00:15:54.550Z,19.60
2023-05-05T00:18:57.954Z,20.00
2023-05-05T00:22:01.164Z,21.40
2023-05-05T00:25:04.970Z,20.00
2023-05-05T00:28:28.298Z,20.60
2023-05-05T00:31:31.638Z,17.00
2023-05-05T00:34:35.727Z,17.00
2023-05-05T00:37:39.146Z,18.20
2023-05-05T00:40:42.445Z,19.25
2023-05-05T00:43:47.716Z,18.00
2023-05-05T00:46:51.216Z,21.00
2023-05-05T00:49:54.586Z,19.40
2023-05-05T00:53:02.789Z,19.60
2023-05-05T00:56:06.761Z,17.40
2023-05-05T00:59:11.344Z,19.20
2023-05-05T01:02:14.983Z,17.40
2023-05-05T01:05:19.842Z,17.00
2023-05-05T01:08:36.679Z,20.00
2023-05-05T01:11:46.108Z,20.00
2023-05-05T01:14:59.415Z,21.00
2023-05-05T01:18:10.977Z,20.00
2023-05-05T01:21:20.463Z,18.75
2023-05-05T01:24:44.858Z,21.00
2023-05-05T01:28:02.268Z,18.60
2023-05-05T01:31:24.709Z,17.00
2023-05-05T01:34:35.583Z,20.00
2023-05-05T01:37:47.274Z,19.00
2023-05-05T01:40:55.192Z,20.00
2023-05-05T01:44:03.263Z,17.40
2023-05-05T01:47:07.865Z,20.00
2023-05-05T01:50:14.786Z,19.60
2023-05-05T01:53:20.524Z,16.75
2023-05-05T01:56:27.609Z,15.40
2023-05-05T01:59:31.650Z,11.60
2023-05-05T02:02:37.600Z,19.00
2023-05-05T02:05:44.926Z,18.80
2023-05-05T02:08:49.530Z,13.50
2023-05-05T02:11:53.546Z,16.40
2023-05-05T02:15:00.981Z,18.00
2023-05-05T02:18:07.823Z,18.75
2023-05-05T02:21:14.338Z,20.00
2023-05-05T02:24:17.664Z,18.80
2023-05-05T02:27:24.301Z,14.80
2023-05-05T02:30:30.893Z,20.00
2023-05-05T02:33:36.726Z,20.00
2023-05-05T02:36:44.107Z,16.20
2023-05-05T02:39:58.550Z,14.00
2023-05-05T02:43:09.124Z,19.75
2023-05-05T02:46:12.530Z,18.00
2023-05-05T02:49:18.387Z,17.00
2023-05-05T02:52:23.557Z,19.60
2023-05-05T02:55:28.687Z,18.25
2023-05-05T02:58:38.885Z,17.50
2023-05-05T03:01:55.906Z,18.75
2023-05-05T03:05:05.703Z,18.00
2023-05-05T03:08:21.748Z,18.00
2023-05-05T03:11:33.068Z,18.00
2023-05-05T03:14:41.629Z,17.00
2023-05-05T03:17:47.881Z,17.40
2023-05-05T03:20:52.248Z,17.80
2023-05-05T03:23:58.245Z,19.40
2023-05-05T03:27:01.603Z,17.00
2023-05-05T03:30:10.777Z,17.60
2023-05-05T03:33:21.626Z,19.60
2023-05-05T03:36:27.190Z,19.50
2023-05-05T03:39:33.497Z,19.50
2023-05-05T03:42:37.340Z,21.60
2023-05-05T03:45:41.179Z,16.40
2023-05-05T03:48:45.124Z,18.00
2023-05-05T03:51:49.051Z,20.50
2023-05-05T03:54:54.328Z,19.75
2023-05-05T03:57:57.690Z,19.00
2023-05-05T04:01:01.233Z,18.00
2023-05-05T04:04:04.608Z,17.00
2023-05-05T04:07:07.876Z,18.00
2023-05-05T04:10:13.384Z,19.00
2023-05-05T04:13:16.891Z,19.20
2023-05-05T04:16:20.920Z,16.00
2023-05-05T04:19:24.462Z,19.00
2023-05-05T04:22:27.913Z,18.00
2023-05-05T04:25:32.821Z,16.00
2023-05-05T04:28:36.463Z,17.00
2023-05-05T04:31:40.006Z,17.00
2023-05-05T04:34:43.341Z,16.60
2023-05-05T04:37:47.334Z,20.00
2023-05-05T04:40:52.062Z,16.50
2023-05-05T04:43:55.608Z,18.00
2023-05-05T04:46:59.098Z,16.50
2023-05-05T04:50:02.693Z,16.40
2023-05-05T04:53:06.057Z,14.40
2023-05-05T04:56:11.195Z,18.00
2023-05-05T04:59:15.239Z,18.80
2023-05-05T05:02:18.979Z,16.00
2023-05-05T05:05:22.465Z,15.00
2023-05-05T05:08:26.256Z,16.80
2023-05-05T05:11:30.937Z,17.00
2023-05-05T05:14:38.186Z,15.80
2023-05-05T05:17:41.945Z,15.00
2023-05-05T05:20:45.309Z,13.80
2023-05-05T05:23:49.225Z,14.00
2023-05-05T05:26:54.115Z,15.00
2023-05-05T05:29:57.436Z,13.50
2023-05-05T05:33:02.788Z,16.40
2023-05-05T05:36:07.051Z,16.00
2023-05-05T05:39:10.632Z,12.00
2023-05-05T05:42:15.954Z,14.00
2023-05-05T05:45:19.537Z,13.00
2023-05-05T05:48:25.119Z,13.00
2023-05-05T05:51:29.020Z,15.40
2023-05-05T05:54:32.857Z,13.00
2023-05-05T05:57:37.742Z,12.80
2023-05-05T06:00:42.728Z,15.00
2023-05-05T06:03:47.726Z,14.00
2023-05-05T06:06:51.755Z,12.60
2023-05-05T06:09:54.995Z,13.00
2023-05-05T06:12:59.889Z,13.00
2023-05-05T06:16:03.464Z,15.00
2023-05-05T06:19:09.889Z,15.00
2023-05-05T06:22:13.776Z,14.50
2023-05-05T06:25:17.376Z,14.00
2023-05-05T06:28:22.940Z,13.00
2023-05-05T06:31:26.408Z,13.00
2023-05-05T06:34:29.679Z,13.60
2023-05-05T06:37:32.991Z,14.00
2023-05-05T06:40:36.278Z,14.20
2023-05-05T06:43:43.084Z,13.00
2023-05-05T06:46:48.835Z,13.00
2023-05-05T06:49:52.564Z,13.20
2023-05-05T06:52:56.122Z,12.00
2023-05-05T06:55:59.394Z,13.00
2023-05-05T06:59:04.017Z,12.60
2023-05-05T07:02:07.638Z,14.00
2023-05-05T07:05:11.108Z,11.00
2023-05-05T07:08:14.336Z,12.00
2023-05-05T07:11:17.738Z,9.00
2023-05-05T07:14:24.371Z,10.00
2023-05-05T07:17:27.931Z,10.00
2023-05-05T07:20:31.433Z,9.00
2023-05-05T07:23:34.719Z,10.00
2023-05-05T07:26:37.976Z,9.00
2023-05-05T07:29:42.800Z,10.00
2023-05-05T07:32:46.343Z,8.00
2023-05-05T07:35:49.750Z,10.00
2023-05-05T07:38:53.034Z,9.00
2023-05-05T07:41:56.412Z,8.00
2023-05-05T07:45:01.004Z,9.00
2023-05-05T07:48:04.475Z,7.00
2023-05-05T07:51:07.968Z,9.00
2023-05-05T07:54:11.511Z,9.60
2023-05-05T07:57:14.790Z,8.00
2023-05-05T08:00:21.801Z,11.60
2023-05-05T08:03:25.365Z,10.00
2023-05-05T08:06:31.653Z,10.00
2023-05-05T08:09:35.480Z,10.00
2023-05-05T08:12:38.980Z,10.00
2023-05-05T08:15:45.223Z,10.00
2023-05-05T08:18:48.481Z,10.00
2023-05-05T08:21:51.974Z,7.00
2023-05-05T08:24:55.342Z,9.00
2023-05-05T08:27:58.547Z,7.00
2023-05-05T08:31:06.687Z,8.00
2023-05-05T08:34:10.087Z,6.25
2023-05-05T08:37:13.308Z,6.00
2023-05-05T08:40:16.759Z,6.00
2023-05-05T08:43:22.958Z,4.40
2023-05-05T08:46:29.529Z,6.00
2023-05-05T08:49:41.703Z,5.00
2023-05-05T08:52:49.826Z,4.00
2023-05-05T08:55:57.581Z,7.00
2023-05-05T08:59:02.605Z,5.00
2023-05-05T09:02:10.707Z,5.00
2023-05-05T09:05:14.612Z,6.00
2023-05-05T09:08:19.076Z,5.60
2023-05-05T09:11:23.297Z,3.80
2023-05-05T09:17:48.860Z,4.00
2023-05-05T09:20:52.331Z,4.00
2023-05-05T09:24:08.947Z,6.00
2023-05-05T09:27:23.304Z,3.75
2023-05-05T09:30:27.316Z,3.25
2023-05-05T09:33:32.817Z,5.00
2023-05-05T09:36:44.290Z,4.50
2023-05-05T09:39:55.667Z,5.60
2023-05-05T09:43:02.898Z,6.00
2023-05-05T09:46:09.478Z,6.40
2023-05-05T09:49:16.726Z,4.00
2023-05-05T09:52:20.146Z,4.20
2023-05-05T09:55:24.472Z,5.00
2023-05-05T09:58:29.344Z,6.00
2023-05-05T10:01:32.708Z,6.00
2023-05-05T10:04:37.758Z,5.00
2023-05-05T10:07:42.424Z,4.40
2023-05-05T10:10:51.826Z,4.00
2023-05-05T10:13:55.347Z,4.80
2023-05-05T10:17:01.862Z,4.00
2023-05-05T10:20:11.624Z,5.00
2023-05-05T10:23:19.557Z,6.75
2023-05-05T10:26:24.444Z,5.00
2023-05-05T10:29:38.200Z,4.00
2023-05-05T10:32:59.333Z,4.00
2023-05-05T10:36:11.136Z,7.00
2023-05-05T10:39:16.384Z,5.00
2023-05-05T10:42:20.914Z,7.00
2023-05-05T10:45:24.385Z,4.00
2023-05-05T10:48:37.326Z,5.60
2023-05-05T10:51:53.607Z,6.40
2023-05-05T10:55:07.514Z,6.00
2023-05-05T10:58:43.671Z,6.20
2023-05-05T11:01:54.911Z,7.00
2023-05-05T11:05:18.125Z,4.00
2023-05-05T11:08:28.825Z,7.25
2023-05-05T11:12:05.754Z,6.00
2023-05-05T11:15:37.578Z,7.00
2023-05-05T11:18:44.535Z,4.00
2023-05-05T11:22:01.698Z,4.00
2023-05-05T11:25:47.253Z,4.00
2023-05-05T11:29:12.872Z,5.00
2023-05-05T11:32:16.861Z,4.00
2023-05-05T11:35:20.205Z,5.00
2023-05-05T11:38:27.735Z,4.00
2023-05-05T11:41:58.911Z,4.00
2023-05-05T11:45:04.125Z,5.75
2023-05-05T11:48:26.135Z,4.00
2023-05-05T11:51:29.903Z,5.60
2023-05-05T11:54:34.293Z,4.00
2023-05-05T11:57:37.704Z,7.00
2023-05-05T12:00:42.522Z,5.60
2023-05-05T12:03:46.369Z,6.00
2023-05-05T12:06:50.109Z,4.00
2023-05-05T12:09:53.749Z,4.50
2023-05-05T12:12:57.086Z,6.25
2023-05-05T12:16:11.228Z,4.60
2023-05-05T12:19:14.512Z,5.00
2023-05-05T12:22:22.949Z,5.40
2023-05-05T12:25:26.667Z,6.00
2023-05-05T12:28:44.705Z,5.20
2023-05-05T12:31:49.352Z,4.00
2023-05-05T12:34:57.509Z,5.00
2023-05-05T12:38:00.946Z,4.00
2023-05-05T12:41:04.442Z,6.60
2023-05-05T12:44:08.143Z,6.00
2023-05-05T12:47:15.626Z,7.00
2023-05-05T12:50:30.918Z,7.00
2023-05-05T12:53:34.633Z,6.00
2023-05-05T12:56:39.271Z,7.00
2023-05-05T12:59:42.504Z,7.00
2023-05-05T13:02:47.423Z,7.00
2023-05-05T13:05:50.797Z,6.50
2023-05-05T13:08:54.114Z,5.00
2023-05-05T13:11:58.108Z,4.80
2023-05-05T13:15:01.339Z,3.40
2023-05-05T13:18:06.208Z,3.00
2023-05-05T13:21:09.739Z,4.00
2023-05-05T13:24:26.001Z,2.00
2023-05-05T13:27:31.729Z,5.00
2023-05-05T13:30:35.031Z,5.20
2023-05-05T13:33:39.755Z,6.00
2023-05-05T13:36:43.138Z,4.60
2023-05-05T13:39:46.464Z,4.00
2023-05-05T13:42:49.737Z,7.60
2023-05-05T13:45:53.674Z,7.00
2023-05-05T13:48:58.311Z,6.00
2023-05-05T13:52:01.629Z,6.00
2023-05-05T13:55:05.426Z,3.00
2023-05-05T13:58:08.777Z,5.00
2023-05-05T14:01:12.263Z,6.40
2023-05-05T14:04:17.083Z,5.60
2023-05-05T14:07:21.484Z,7.00
2023-05-05T14:10:26.271Z,5.00
2023-05-05T14:13:29.511Z,5.00
2023-05-05T14:16:32.892Z,4.00
2023-05-05T14:19:37.608Z,4.00
2023-05-05T14:22:42.331Z,7.00
2023-05-05T14:25:45.624Z,6.00
2023-05-05T14:28:50.040Z,5.00
2023-05-05T14:31:53.515Z,6.00
2023-05-05T14:34:58.431Z,3.00
2023-05-05T14:38:02.038Z,4.60
2023-05-05T14:41:06.066Z,4.00
2023-05-05T14:44:09.300Z,4.67
2023-05-05T14:47:13.209Z,4.40
2023-05-05T14:50:18.400Z,4.40
2023-05-05T14:53:40.253Z,4.00
2023-05-05T14:56:43.535Z,5.40
2023-05-05T14:59:51.338Z,5.50
2023-05-05T15:02:54.657Z,5.00
2023-05-05T15:05:59.938Z,4.60
2023-05-05T15:09:03.717Z,4.00
2023-05-05T15:12:07.281Z,6.00
2023-05-05T15:15:11.327Z,8.00
2023-05-05T15:18:14.696Z,7.67
2023-05-05T15:21:19.247Z,7.00
2023-05-05T15:24:22.966Z,6.60
2023-05-05T15:27:26.269Z,5.00
2023-05-05T15:30:29.769Z,5.00
2023-05-05T15:33:33.597Z,7.00
2023-05-05T15:36:38.202Z,5.00
2023-05-05T15:39:41.417Z,6.50
2023-05-05T15:42:44.687Z,4.00
2023-05-05T15:45:47.979Z,6.25
2023-05-05T15:48:51.405Z,5.00
2023-05-05T15:51:55.960Z,7.00
2023-05-05T15:54:59.288Z,6.00
2023-05-05T15:58:02.502Z,7.80
2023-05-05T16:01:05.809Z,7.00
2023-05-05T16:04:09.055Z,5.00
2023-05-05T16:07:13.831Z,5.25
2023-05-05T16:10:18.299Z,5.40
2023-05-05T16:13:21.644Z,4.00
2023-05-05T16:16:25.048Z,4.00
2023-05-05T16:19:31.362Z,5.50
2023-05-05T16:22:36.014Z,6.00
2023-05-05T16:25:39.283Z,5.00
2023-05-05T16:28:42.546Z,5.00
2023-05-05T16:31:45.914Z,4.40
2023-05-05T16:34:49.152Z,4.40
2023-05-05T16:37:53.929Z,6.20
2023-05-05T16:40:57.454Z,6.00
2023-05-05T16:44:00.780Z,4.80
2023-05-05T16:47:04.247Z,5.40
2023-05-05T16:50:08.619Z,5.00
2023-05-05T16:53:13.197Z,6.00
2023-05-05T16:56:16.537Z,4.00
2023-05-05T16:59:19.800Z,6.80
2023-05-05T17:02:23.269Z,5.40
2023-05-05T17:05:26.956Z,6.00
2023-05-05T17:08:31.625Z,6.75
2023-05-05T17:11:34.872Z,8.00
2023-05-05T17:14:38.088Z,7.00
2023-05-05T17:17:42.902Z,6.50
2023-05-05T17:20:46.760Z,7.00
2023-05-05T17:23:51.324Z,6.00
2023-05-05T17:26:55.217Z,6.00
2023-05-05T17:29:58.804Z,7.40
2023-05-05T17:33:02.160Z,6.00
2023-05-05T17:36:05.884Z,8.00
2023-05-05T17:39:11.651Z,7.00
2023-05-05T17:42:16.687Z,6.00
2023-05-05T17:45:19.948Z,10.00
2023-05-05T17:48:23.203Z,7.60
2023-05-05T17:51:27.446Z,8.00
2023-05-05T17:54:32.227Z,9.00
2023-05-05T17:57:35.607Z,7.00
2023-05-05T18:00:39.021Z,7.00
2023-05-05T18:03:42.345Z,7.00
2023-05-05T18:06:45.596Z,6.00
2023-05-05T18:09:50.418Z,7.00
2023-05-05T18:12:53.689Z,7.60
2023-05-05T18:15:57.310Z,8.00
2023-05-05T18:19:00.718Z,9.00
2023-05-05T18:22:04.234Z,8.00
2023-05-05T18:25:10.305Z,8.25
2023-05-05T18:28:13.791Z,8.00
2023-05-05T18:31:17.116Z,10.00
2023-05-05T18:34:21.320Z,9.00
2023-05-05T18:37:24.581Z,8.00
2023-05-05T18:40:29.373Z,9.25
2023-05-05T18:43:32.581Z,8.00
2023-05-05T18:46:36.184Z,8.75
2023-05-05T18:49:39.718Z,8.60
2023-05-05T18:52:43.036Z,7.00
2023-05-05T18:55:47.939Z,8.00
2023-05-05T18:58:51.199Z,9.00
2023-05-05T19:01:54.467Z,7.00
2023-05-05T19:04:57.797Z,9.20
2023-05-05T19:08:01.160Z,9.00
2023-05-05T19:11:06.065Z,11.00
2023-05-05T19:14:09.552Z,9.60
2023-05-05T19:17:12.827Z,11.50
2023-05-05T19:20:16.335Z,10.50
2023-05-05T19:23:19.572Z,11.00
2023-05-05T19:26:26.363Z,9.80
2023-05-05T19:29:31.054Z,12.40
2023-05-05T19:32:34.475Z,13.00
2023-05-05T19:35:37.732Z,11.50
2023-05-05T19:38:44.748Z,14.00
2023-05-05T19:41:49.675Z,14.60
2023-05-05T19:44:52.956Z,14.00
2023-05-05T19:47:56.849Z,13.20
2023-05-05T19:51:00.209Z,15.50
2023-05-05T19:54:03.455Z,13.00
2023-05-05T19:57:08.150Z,7.60
2023-05-05T20:00:12.567Z,13.40
2023-05-05T20:03:16.026Z,13.20
2023-05-05T20:06:19.378Z,16.20
2023-05-05T20:09:22.875Z,16.75
2023-05-05T20:12:28.292Z,14.40
2023-05-05T20:15:33.122Z,16.60
2023-05-05T20:18:36.554Z,17.00
2023-05-05T20:21:40.209Z,20.00
2023-05-05T20:24:43.453Z,17.00
2023-05-05T20:27:48.022Z,18.67
2023-05-05T20:30:51.358Z,18.00
2023-05-05T20:33:54.905Z,16.60
2023-05-05T20:36:58.368Z,18.00
2023-05-05T20:40:01.713Z,19.00
2023-05-05T20:43:06.502Z,17.60
2023-05-05T20:46:13.029Z,19.60
2023-05-05T20:49:16.738Z,16.25
2023-05-05T20:52:20.578Z,17.20
2023-05-05T20:55:24.179Z,20.00
2023-05-05T20:58:28.800Z,18.00
2023-05-05T21:01:32.435Z,18.40
2023-05-05T21:04:35.763Z,19.00
2023-05-05T21:07:39.100Z,16.40
2023-05-05T21:10:42.610Z,18.50
2023-05-05T21:13:47.424Z,16.25
2023-05-05T21:16:50.716Z,14.00
2023-05-05T21:19:54.271Z,15.60
2023-05-05T21:22:57.982Z,17.50
2023-05-05T21:26:01.213Z,15.00
2023-05-05T21:29:06.575Z,16.40
2023-05-05T21:32:11.048Z,17.00
2023-05-05T21:35:14.996Z,15.00
2023-05-05T21:38:18.206Z,16.00
2023-05-05T21:41:21.446Z,18.00
2023-05-05T21:44:26.845Z,18.00
2023-05-05T21:47:30.158Z,18.40
2023-05-05T21:50:33.705Z,17.40
2023-05-05T21:53:37.874Z,18.00
2023-05-05T21:56:41.167Z,18.00
2023-05-05T21:59:45.988Z,15.60
2023-05-05T22:02:49.500Z,12.80
2023-05-05T22:05:52.873Z,14.00
2023-05-05T22:08:56.716Z,16.60
2023-05-05T22:12:00.054Z,16.00
2023-05-05T22:15:05.576Z,12.67
2023-05-05T22:18:08.972Z,16.40
2023-05-05T22:21:12.219Z,16.40
2023-05-05T22:24:15.525Z,16.00
2023-05-05T22:27:18.700Z,14.00
2023-05-05T22:30:23.373Z,13.75
2023-05-05T22:33:26.799Z,14.00
2023-05-05T22:36:30.106Z,14.00
2023-05-05T22:39:33.729Z,13.00
2023-05-05T22:42:37.689Z,10.25
2023-05-05T22:45:42.557Z,13.40
2023-05-05T22:48:46.185Z,12.00
2023-05-05T22:51:51.183Z,14.00
2023-05-05T22:54:54.550Z,14.00
2023-05-05T22:57:57.814Z,14.00
2023-05-05T23:01:02.822Z,12.00
2023-05-05T23:04:06.576Z,11.00
2023-05-05T23:07:10.146Z,13.40
2023-05-05T23:10:13.410Z,12.00
2023-05-05T23:13:16.916Z,11.00
2023-05-05T23:16:22.079Z,12.00
2023-05-05T23:19:25.709Z,12.50
2023-05-05T23:22:28.948Z,12.00
2023-05-05T23:25:32.208Z,10.75
2023-05-05T23:28:35.463Z,11.25
2023-05-05T23:31:40.085Z,12.80
2023-05-05T23:34:43.346Z,12.50
2023-05-05T23:37:46.626Z,15.00
2023-05-05T23:40:49.949Z,10.25
2023-05-05T23:43:53.186Z,13.00
2023-05-05T23:46:58.133Z,12.75
2023-05-05T23:50:01.476Z,13.00
2023-05-05T23:53:04.736Z,13.20
2023-05-05T23:56:08.507Z,10.20
2023-05-05T23:59:11.881Z,13.00
